Flight Track Log - Related Links

Times and Time Zones

All times are in EDT time to prevent confusion due to time zone crossing. See the N560GL flight status page for this flight to view local times or setup timezone preferences in your user account.

Time Position Orientation Groundspeed Altitude Reporting Facility
EDT Latitude Longitude Course Direction KTS MPH feet Rate Location/Type
Sun 12:17:41 PM 25.0133 -77.4389 90° East 423 487 1,800  Level Miami Center
Sun 12:18:41 PM 25.0136 -77.3886 90° East 257 296 4,800 2,900 Climbing Miami Center
Sun 12:19:41 PM 25.0450 -77.3475 50° Northeast 157 181 7,600 2,600 Climbing Miami Center
Sun 12:20:41 PM 25.0889 -77.3108 37° Northeast 164 189 10,000 2,150 Climbing Miami Center
Sun 12:21:41 PM 25.1414 -77.2789 29° Northeast 178 205 11,900 1,450 Climbing Miami Center
Sun 12:22:41 PM 25.1933 -77.3319 317° Northwest 181 208 12,900 1,600 Climbing Miami Center
Sun 12:23:41 PM 25.2119 -77.4147 15° North 220 253 15,100 1,950 Climbing Miami Center
Sun 12:24:41 PM 25.2219 -77.4928 278° West 250 288 16,800 1,350 Climbing Miami Center
Sun 12:25:41 PM 25.2489 -77.5803 289° West 278 320 17,800 1,350 Climbing Miami Center
Sun 12:26:41 PM 25.2775 -77.6700 289° West 301 346 19,500 1,650 Climbing Miami Center
Sun 12:27:41 PM 25.3083 -77.7600 291° West 307 353 21,100 1,650 Climbing Miami Center
Sun 12:28:41 PM 25.3372 -77.8497 290° West 307 353 22,800 1,150 Climbing Miami Center
Sun 12:29:41 PM 25.3678 -77.9444 290° West 313 360 23,400 850 Climbing Miami Center
Sun 12:30:41 PM 25.4006 -78.0458 290° West 331 381 24,500 1,200 Climbing Miami Center
Sun 12:31:41 PM 25.4331 -78.1475 290° West 343 395 25,800 1,550 Climbing Miami Center
Sun 12:32:41 PM 25.4656 -78.2444 290° West 348 400 27,600 1,750 Climbing Miami Center
Sun 12:33:41 PM 25.4961 -78.3392 290° West 343 395 29,300 1,450 Climbing Miami Center
Sun 12:34:41 PM 25.5264 -78.4317 290° West 330 380 30,500 1,100 Climbing Miami Center
Sun 12:35:41 PM 25.5589 -78.5289 290° West 330 380 31,500 1,000 Climbing Miami Center
Sun 12:36:41 PM 25.5931 -78.6353 290° West 330 380 32,500 1,000 Climbing Miami Center
Sun 12:37:41 PM 25.6275 -78.7350 291° West 337 388 33,500 750 Climbing Miami Center
Sun 12:38:41 PM 25.6594 -78.8414 288° West 355 409 34,000 250 Climbing Miami Center
Sun 12:39:41 PM 25.6956 -78.9506 290° West 370 426 34,000  Level Miami Center
Sun 12:40:41 PM 25.7314 -79.0664 289° West 382 440 34,000  Level Miami Center
Sun 12:41:41 PM 25.7694 -79.1847 290° West 398 458 34,000  Level Miami Center
Sun 12:42:41 PM 25.8011 -79.2939 288° West 411 473 34,000  Level Miami Center
Sun 12:43:41 PM 25.8425 -79.4286 289° West 418 481 34,000  Level Miami Center
Sun 12:44:41 PM 25.8800 -79.5517 289° West 423 487 34,000  Level Miami Center
Sun 12:45:41 PM 25.9194 -79.6728 290° West 423 487 34,000  Level Miami Center
Sun 12:46:41 PM 25.9569 -79.7939 289° West 428 493 34,000  Level Miami Center
Sun 12:47:41 PM 26.0003 -79.9219 291° West 428 493 34,000  Level Miami Center
Sun 12:48:41 PM 26.0394 -80.0433 290° West 428 493 34,000 50 Level Miami Center
Sun 12:49:41 PM 26.0869 -80.1603 294° West 423 487 34,100  Climbing Miami Center
Sun 12:50:41 PM 26.1856 -80.2278 328° Northwest 396 456 34,000  Descending Miami Center
Sun 12:51:41 PM 26.2911 -80.2700 340° North 396 456 34,100  Climbing Miami Center
Sun 12:52:41 PM 26.3964 -80.3217 336° Northwest 401 461 34,000  Descending Miami Center
Sun 12:53:41 PM 26.4997 -80.3758 335° Northwest 401 461 34,100  Climbing Miami Center
Sun 12:54:41 PM 26.6050 -80.4208 339° North 407 468 34,000 -50 Descending Miami Center
Sun 12:55:41 PM 26.7125 -80.4728 337° Northwest 407 468 34,000 -450 Level Miami Center
Sun 12:56:41 PM 26.8031 -80.5175 336° Northwest 412 474 33,100 -1,100 Descending Miami Center
Sun 12:57:41 PM 26.9103 -80.5697 337° Northwest 412 474 31,800 -1,240 Descending Miami Center
Sun 12:58:42 PM 27.0178 -80.6175 338° Northwest 412 474 30,600 -1,200 Descending Miami Center
Sun 12:59:41 PM 27.1250 -80.6700 336° Northwest 417 480 29,400 -1,261 Descending Miami Center
Sun 01:00:41 PM 27.2344 -80.7181 339° North 417 480 28,100 -1,250 Descending Miami Center
Sun 01:01:41 PM 27.3417 -80.7683 337° Northwest 417 480 26,900 -1,200 Descending Miami Center
Sun 01:02:41 PM 27.4508 -80.8189 338° Northwest 417 480 25,700 -1,200 Descending Miami Center
Sun 01:03:41 PM 27.5558 -80.8669 338° Northwest 412 474 24,500 -1,200 Descending Miami Center
Sun 01:04:41 PM 27.6631 -80.9175 337° Northwest 412 474 23,300 -744 Descending Miami Center
Sun 01:05:42 PM 27.7639 -80.9681 336° Northwest 412 474 23,000 -150 Descending Miami Center
Sun 01:06:41 PM 27.8628 -81.0117 339° North 401 461 23,000  Level Miami Center
Sun 01:07:41 PM 27.9594 -81.0597 336° Northwest 391 450 23,000  Level Miami Center
Sun 01:09:52 PM 28.1800 -81.1667 337° Northwest 398 458 23,000  Level Jacksonville Center
Sun 01:10:52 PM 28.2767 -81.2097 339° North 393 452 23,000  Level Jacksonville Center
Sun 01:11:52 PM 28.3775 -81.2600 336° Northwest 387 445 23,000 -100 Level Jacksonville Center
Sun 01:12:52 PM 28.4761 -81.3056 338° Northwest 381 438 22,800 -600 Descending Jacksonville Center
Sun 01:13:52 PM 28.5747 -81.3394 343° North 376 433 21,800 -1,250 Descending Jacksonville Center
Sun 01:14:52 PM 28.6853 -81.3378 North 376 433 20,300 -1,350 Descending Jacksonville Center
Sun 01:15:52 PM 28.7936 -81.3408 359° North 382 440 19,100 -1,200 Descending Jacksonville Center
Sun 01:16:52 PM 28.9003 -81.3392 North 382 440 17,900 -1,100 Descending Jacksonville Center
Sun 01:17:52 PM 29.0044 -81.3400 360° North 377 434 16,900 -1,100 Descending Jacksonville Center
Sun 01:18:52 PM 29.1047 -81.3383 North 371 427 15,700 -1,400 Descending Jacksonville Center
Sun 01:19:52 PM 29.2008 -81.3392 360° North 360 414 14,100 -1,650 Descending Jacksonville Center
Sun 01:20:52 PM 29.2969 -81.3447 357° North 346 398 12,400 -2,350 Descending Jacksonville Center
Sun 01:21:52 PM 29.3886 -81.3386 North 335 386 9,400 -3,050 Descending Jacksonville Center
Sun 01:22:52 PM 29.4722 -81.3397 359° North 314 361 6,300 -2,563 Descending Jacksonville Center
Sun 01:23:28 PM 29.5158 -81.3367 North 258 297 5,300 -1,450 Descending Jacksonville Center
Sun 01:24:52 PM 29.6036 -81.3303 North 244 281 3,400 -958 Descending Jacksonville Center
Sun 01:25:52 PM 29.6619 -81.3319 359° North 219 252 3,000 -195 Descending Jacksonville Center
Sun 01:26:55 PM 29.7247 -81.3403 353° North 208 239 3,000 -194 Level Jacksonville Center
Sun 01:27:56 PM 29.7833 -81.3492 353° North 213 245 2,600 -469 Descending Jacksonville Center
Sun 01:29:03 PM 29.8500 -81.3528 357° North 219 252 2,000 -344 Descending Jacksonville Center
Sun 01:29:58 PM 29.9064 -81.3542 359° North 214 246 1,900 -414 Descending Jacksonville Center
Sun 01:30:59 PM 29.9467 -81.3944 319° Northwest 183 211 1,200 -590 Descending Jacksonville Center
Sun 01:32:00 PM 29.9797 -81.3722 30° Northeast 148 170 700 -492 Descending Jacksonville Center
Sun 01:33:00 PM 29.9592 -81.3397 120° Southeast  Level Estimated
Sun 01:40:00 PM 29.9592 -81.3397 120° Southeast  Level Estimated

Login

Don't have an account? Register now (free) for customized features, flight alerts, and more!